Decoded Metar for LFJR (ANGERS in FRANCE) (IATA:N/A) | Meteo·Mobile Aviation Weather
aviador You're here:

LFJR Decoded Metar

ANGERS in FRANCE
Report Time2018-10-19 09:30:00
UTC Time2018-10-19 09:57:20
Flight Rules ifr IFR
Wind040° at 05 kt
W.Decomp.*RWY 08: 3.9 kt HW 3.1 kt LCW
W.Rank040° ranks 20
Current wind is above 040° avg. (4.9)
Visibility3700 m
Phenomena:Mist
Clouds:Overcast 005 Hf
Expected CloudBase > 800 ft AGL from Temp-Dew spread
Ceiling500 ft
Temp12°C (ISA -3)
Dew Point10°C (88% RH)
AAT10.3°C
QNH1023 hPa
Density Alt-285 ft
Elevation197 ft
Report Wrong Elevation
Raw Report
METAR LFJR 190930Z AUTO 04005KT 350V090 3700 BR OVC005 12/10 Q1023
BECMG CAVOK=

Extra information for LFJR:More info

Metar Taf Metar & Taf Last 4 Metars F.Rules Stats Wind Profile Meteogram Temp Stats Airport Information Weather charts Add Link Nearby VenuesMetar ALERT Operation Metar Decoded Social comments